createdAt,value
2023-05-08T00:00:28.586Z,2.90
2023-05-08T00:05:21.874Z,3.05
2023-05-08T00:10:15.169Z,2.65
2023-05-08T00:15:11.274Z,2.92
2023-05-08T00:20:04.551Z,2.88
2023-05-08T00:24:57.541Z,2.83
2023-05-08T00:29:50.917Z,2.85
2023-05-08T00:34:45.422Z,2.72
2023-05-08T00:39:38.480Z,2.40
2023-05-08T00:44:31.671Z,2.38
2023-05-08T00:49:25.253Z,2.53
2023-05-08T00:54:20.622Z,2.80
2023-05-08T00:59:16.239Z,2.47
2023-05-08T01:04:09.501Z,2.78
2023-05-08T01:09:02.941Z,2.42
2023-05-08T01:14:09.027Z,2.88
2023-05-08T01:19:08.558Z,2.72
2023-05-08T01:24:26.426Z,3.30
2023-05-08T01:30:01.138Z,2.40
2023-05-08T01:35:04.570Z,2.72
2023-05-08T01:40:10.051Z,2.90
2023-05-08T01:45:09.144Z,2.60
2023-05-08T01:50:07.445Z,2.72
2023-05-08T01:55:04.693Z,2.70
2023-05-08T02:00:01.723Z,2.70
2023-05-08T02:04:55.925Z,2.65
2023-05-08T02:09:52.614Z,2.80
2023-05-08T02:14:49.235Z,2.47
2023-05-08T02:19:43.982Z,2.33
2023-05-08T02:24:38.290Z,2.70
2023-05-08T02:29:33.667Z,2.58
2023-05-08T02:34:28.155Z,2.78
2023-05-08T02:39:23.126Z,2.60
2023-05-08T02:44:17.175Z,3.20
2023-05-08T02:49:21.666Z,2.60
2023-05-08T02:54:20.002Z,2.85
2023-05-08T02:59:20.400Z,2.67
2023-05-08T03:04:25.690Z,3.08
2023-05-08T03:09:21.575Z,2.80
2023-05-08T03:14:19.064Z,2.67
2023-05-08T03:19:23.155Z,3.25
2023-05-08T03:24:19.444Z,2.88
2023-05-08T03:29:15.762Z,3.17
2023-05-08T03:34:11.038Z,2.72
2023-05-08T03:39:07.756Z,2.90
2023-05-08T03:44:03.559Z,3.40
2023-05-08T03:48:57.083Z,2.92
2023-05-08T03:53:50.471Z,3.28
2023-05-08T03:58:51.879Z,4.25
2023-05-08T04:03:57.603Z,4.10
2023-05-08T04:08:56.668Z,3.40
2023-05-08T04:13:58.715Z,3.55
2023-05-08T04:18:59.523Z,3.70
2023-05-08T04:23:54.508Z,4.38
2023-05-08T04:28:47.871Z,3.60
2023-05-08T04:33:44.123Z,3.55
2023-05-08T04:38:38.162Z,3.30
2023-05-08T04:43:34.093Z,2.75
2023-05-08T04:48:27.675Z,3.20
2023-05-08T04:53:22.178Z,3.22
2023-05-08T04:58:15.433Z,3.30
2023-05-08T05:03:08.772Z,3.33
2023-05-08T05:08:01.927Z,2.97
2023-05-08T05:12:57.076Z,3.00
2023-05-08T05:17:50.442Z,2.97
2023-05-08T05:22:43.666Z,2.85
2023-05-08T05:27:37.674Z,2.72
2023-05-08T05:32:33.906Z,3.20
2023-05-08T05:37:27.552Z,3.20
2023-05-08T05:42:21.692Z,3.03
2023-05-08T05:47:14.806Z,2.90
2023-05-08T05:52:09.692Z,3.20
2023-05-08T05:57:03.375Z,2.78
2023-05-08T06:01:56.651Z,3.15
2023-05-08T06:06:49.923Z,2.90
2023-05-08T06:11:44.470Z,3.33
2023-05-08T06:16:37.741Z,3.00
2023-05-08T06:21:31.281Z,2.72
2023-05-08T06:26:24.662Z,3.10
2023-05-08T06:31:19.484Z,3.20
2023-05-08T06:36:13.154Z,3.20
2023-05-08T06:41:06.456Z,2.80
2023-05-08T06:45:59.575Z,2.85
2023-05-08T06:50:54.054Z,2.90
2023-05-08T06:55:47.445Z,2.90
2023-05-08T07:00:40.593Z,3.42
2023-05-08T07:05:33.795Z,2.72
2023-05-08T07:10:28.260Z,3.00
2023-05-08T07:15:26.642Z,3.08
2023-05-08T07:20:20.431Z,3.20
2023-05-08T07:25:14.004Z,3.10
2023-05-08T07:30:10.781Z,2.97
2023-05-08T07:35:06.838Z,3.65
2023-05-08T07:40:00.747Z,3.03
2023-05-08T07:44:55.151Z,3.15
2023-05-08T07:49:49.907Z,3.25
2023-05-08T07:54:43.966Z,3.17
2023-05-08T07:59:37.177Z,3.63
2023-05-08T08:04:30.806Z,3.60
2023-05-08T08:09:25.380Z,3.20
2023-05-08T08:14:18.582Z,3.10
2023-05-08T08:19:11.851Z,3.00
2023-05-08T08:24:05.345Z,2.78
2023-05-08T08:28:59.837Z,3.20
2023-05-08T08:33:53.175Z,3.55
2023-05-08T08:38:46.491Z,3.50
2023-05-08T08:43:43.372Z,3.10
2023-05-08T08:48:39.480Z,3.08
2023-05-08T08:53:36.976Z,3.42
2023-05-08T08:58:36.575Z,3.65
2023-05-08T09:03:32.796Z,3.42
2023-05-08T09:08:27.825Z,3.58
2023-05-08T09:13:21.143Z,3.20
2023-05-08T09:18:14.282Z,3.10
2023-05-08T09:23:07.900Z,3.30
2023-05-08T09:28:17.246Z,3.38
2023-05-08T09:33:10.499Z,2.72
2023-05-08T09:38:03.701Z,3.83
2023-05-08T09:42:56.722Z,3.80
2023-05-08T09:47:51.293Z,3.85
2023-05-08T09:52:48.872Z,4.38
2023-05-08T09:57:53.674Z,4.00
2023-05-08T10:02:58.344Z,4.50
2023-05-08T10:07:51.837Z,4.35
2023-05-08T10:12:45.882Z,4.32
2023-05-08T10:17:45.356Z,4.97
2023-05-08T10:22:44.586Z,4.47
2023-05-08T10:27:46.188Z,4.30
2023-05-08T10:32:46.099Z,4.00
2023-05-08T10:37:42.934Z,4.57
2023-05-08T10:42:36.602Z,3.95
2023-05-08T10:47:45.025Z,3.65
2023-05-08T10:52:48.845Z,4.47
2023-05-08T10:57:42.215Z,4.00
2023-05-08T11:02:37.203Z,4.05
2023-05-08T11:07:55.163Z,3.90
2023-05-08T11:12:51.563Z,3.70
2023-05-08T11:17:54.690Z,4.60
2023-05-08T11:22:50.103Z,4.55
2023-05-08T11:28:13.988Z,4.07
2023-05-08T11:33:15.569Z,4.00
2023-05-08T11:38:34.134Z,4.20
2023-05-08T11:43:58.448Z,4.13
2023-05-08T11:49:00.185Z,5.68
2023-05-08T11:53:54.676Z,5.00
2023-05-08T11:58:47.724Z,5.05
2023-05-08T12:03:40.882Z,5.45
2023-05-08T12:08:34.201Z,5.60
2023-05-08T12:13:30.211Z,5.40
2023-05-08T12:18:24.949Z,5.43
2023-05-08T12:23:18.682Z,6.63
2023-05-08T12:28:12.053Z,6.28
2023-05-08T12:33:07.567Z,6.03
2023-05-08T12:38:03.515Z,6.60
2023-05-08T12:42:56.664Z,7.15
2023-05-08T12:47:50.778Z,6.80
2023-05-08T12:52:45.801Z,7.43
2023-05-08T12:57:38.870Z,7.30
2023-05-08T13:02:32.135Z,7.57
2023-05-08T13:07:25.521Z,7.47
2023-05-08T13:12:19.990Z,7.35
2023-05-08T13:17:18.483Z,7.28
2023-05-08T13:22:11.593Z,8.25
2023-05-08T13:27:04.958Z,8.35
2023-05-08T13:31:59.997Z,8.07
2023-05-08T13:36:53.324Z,7.60
2023-05-08T13:41:48.897Z,7.82
2023-05-08T13:46:41.922Z,7.68
2023-05-08T13:51:37.584Z,7.13
2023-05-08T13:56:30.660Z,6.93
2023-05-08T14:01:26.881Z,6.40
2023-05-08T14:06:20.607Z,6.75
2023-05-08T14:11:14.997Z,7.20
2023-05-08T14:16:10.527Z,7.38
2023-05-08T14:21:03.705Z,6.38
2023-05-08T14:25:56.899Z,6.88
2023-05-08T14:30:51.420Z,6.93
2023-05-08T14:35:45.810Z,6.90
2023-05-08T14:40:38.899Z,6.72
2023-05-08T14:45:32.086Z,6.95
2023-05-08T14:50:27.873Z,6.82
2023-05-08T14:55:21.584Z,6.75
2023-05-08T15:00:16.684Z,6.43
2023-05-08T15:05:18.872Z,6.82
2023-05-08T15:10:14.278Z,6.80
2023-05-08T15:15:08.436Z,6.85
2023-05-08T15:20:01.452Z,6.18
2023-05-08T15:24:54.497Z,6.13
2023-05-08T15:29:50.457Z,6.38
2023-05-08T15:34:43.522Z,6.47
2023-05-08T15:39:37.525Z,6.20
2023-05-08T15:44:42.110Z,6.82
2023-05-08T15:49:45.133Z,6.70
2023-05-08T15:54:38.849Z,6.90
2023-05-08T15:59:31.955Z,6.13
2023-05-08T16:04:25.000Z,6.78
2023-05-08T16:09:19.412Z,6.60
2023-05-08T16:14:12.437Z,6.00
2023-05-08T16:19:05.599Z,7.15
2023-05-08T16:23:58.877Z,7.28
2023-05-08T16:28:53.379Z,6.78
2023-05-08T16:33:46.508Z,6.93
2023-05-08T16:38:40.079Z,7.68
2023-05-08T16:43:33.783Z,7.55
2023-05-08T16:48:29.058Z,7.45
2023-05-08T16:53:22.167Z,7.32
2023-05-08T16:58:16.021Z,7.82
2023-05-08T17:03:09.149Z,7.60
2023-05-08T17:08:03.972Z,8.15
2023-05-08T17:12:56.997Z,7.85
2023-05-08T17:17:50.682Z,8.45
2023-05-08T17:22:43.712Z,7.82
2023-05-08T17:27:38.595Z,7.97
2023-05-08T17:32:32.114Z,7.88
2023-05-08T17:37:25.351Z,7.13
2023-05-08T17:42:18.488Z,8.10
2023-05-08T17:47:12.991Z,7.43
2023-05-08T17:52:06.244Z,7.10
2023-05-08T17:56:59.389Z,6.60
2023-05-08T18:01:52.433Z,7.35
2023-05-08T18:06:49.172Z,7.20
2023-05-08T18:11:45.036Z,7.90
2023-05-08T18:16:38.231Z,7.07
2023-05-08T18:21:31.677Z,6.95
2023-05-08T18:26:26.154Z,7.95
2023-05-08T18:31:19.235Z,8.85
2023-05-08T18:36:12.466Z,9.65
2023-05-08T18:41:07.142Z,9.52
2023-05-08T18:46:05.076Z,9.15
2023-05-08T18:50:58.810Z,9.20
2023-05-08T18:55:52.961Z,8.95
2023-05-08T19:00:46.380Z,8.85
2023-05-08T19:05:42.053Z,9.48
2023-05-08T19:10:35.393Z,9.63
2023-05-08T19:15:31.124Z,9.32
2023-05-08T19:20:24.406Z,10.35
2023-05-08T19:25:19.146Z,9.40
2023-05-08T19:30:13.389Z,9.32
2023-05-08T19:35:08.324Z,9.38
2023-05-08T19:40:01.470Z,9.38
2023-05-08T19:44:55.947Z,9.93
2023-05-08T19:49:50.051Z,9.13
2023-05-08T19:54:47.651Z,9.80
2023-05-08T19:59:40.866Z,10.57
2023-05-08T20:04:48.561Z,10.15
2023-05-08T20:11:10.832Z,9.50
2023-05-08T20:28:29.612Z,7.43
2023-05-08T20:34:01.601Z,6.85
2023-05-08T20:45:46.643Z,5.93
2023-05-08T20:50:39.801Z,4.90
2023-05-08T20:55:32.912Z,2.67
2023-05-08T21:00:26.147Z,2.35
2023-05-08T21:05:23.710Z,2.00
2023-05-08T21:10:16.918Z,2.50
2023-05-08T21:15:10.333Z,2.50
2023-05-08T21:20:03.450Z,2.70
2023-05-08T21:24:57.922Z,2.67
2023-05-08T21:29:51.009Z,2.90
2023-05-08T21:34:44.057Z,3.22
2023-05-08T21:39:37.107Z,2.97
2023-05-08T21:44:31.714Z,3.75
2023-05-08T21:49:24.946Z,3.80
2023-05-08T21:54:18.108Z,4.20
2023-05-08T21:59:11.217Z,3.92
2023-05-08T22:04:05.756Z,3.60
2023-05-08T22:08:59.036Z,3.95
2023-05-08T22:13:52.206Z,4.47
2023-05-08T22:18:45.268Z,4.97
2023-05-08T22:23:39.780Z,5.32
2023-05-08T22:28:33.021Z,5.78
2023-05-08T22:33:26.153Z,6.40
2023-05-08T22:38:21.244Z,6.55
2023-05-08T22:43:15.851Z,6.80
2023-05-08T22:48:09.580Z,7.25
2023-05-08T22:53:07.895Z,6.97
2023-05-08T22:58:01.414Z,7.07
2023-05-08T23:02:56.564Z,7.30
2023-05-08T23:07:49.964Z,7.15
2023-05-08T23:12:43.147Z,7.45
2023-05-08T23:17:36.761Z,7.50
2023-05-08T23:22:31.324Z,7.95
2023-05-08T23:27:24.495Z,7.03
2023-05-08T23:32:17.816Z,7.55
2023-05-08T23:37:10.925Z,7.38
2023-05-08T23:42:07.870Z,7.95
2023-05-08T23:47:01.326Z,7.45
2023-05-08T23:51:54.541Z,8.10
2023-05-08T23:56:47.632Z,7.47
